Time;durP1;ratioP1;P1;durP2;ratioP2;P2;SDS_P1;SDS_P2;PMS_P1;PMS_P2;Temp;Humidity;BMP_temperature;BMP_pressure;BME280_temperature;BME280_humidity;BME280_pressure;Samples;Min_cycle;Max_cycle;Signal;HPM_P1;HPM_P2
2022/01/10 00:00:55;;;;;;;;;0.00;0.00;;;;;;;;5157932;27;8776;-83
2022/01/10 00:03:24;;;;;;;;;0.00;0.00;;;;;;;;5157779;27;8956;-83
2022/01/10 00:05:50;;;;;;;;;0.00;0.00;;;;;;;;5138554;27;8777;-83
2022/01/10 00:08:15;;;;;;;;;0.00;0.00;;;;;;;;5157843;27;8860;-83
2022/01/10 00:10:44;;;;;;;;;0.00;0.00;;;;;;;;5157656;27;8822;-84
2022/01/10 00:13:09;;;;;;;;;0.00;0.00;;;;;;;;5157826;27;8864;-81
2022/01/10 00:15:34;;;;;;;;;0.00;0.00;;;;;;;;5139056;27;8800;-82
2022/01/10 00:18:00;;;;;;;;;0.00;0.00;;;;;;;;5157374;27;8973;-82
2022/01/10 00:20:25;;;;;;;;;0.00;0.00;;;;;;;;5157382;27;8842;-82
2022/01/10 00:22:51;;;;;;;;;0.00;0.00;;;;;;;;5157483;27;8816;-82
2022/01/10 00:25:23;;;;;;;;;0.00;0.00;;;;;;;;5139284;27;8800;-82
2022/01/10 00:27:53;;;;;;;;;0.00;0.00;;;;;;;;5156836;27;8753;-82
2022/01/10 00:30:19;;;;;;;;;0.00;0.00;;;;;;;;5139059;27;8784;-80
2022/01/10 00:32:45;;;;;;;;;0.00;0.00;;;;;;;;5157268;27;8785;-80
2022/01/10 00:35:11;;;;;;;;;0.00;0.00;;;;;;;;5157667;27;8964;-80
2022/01/10 00:37:36;;;;;;;;;0.00;0.00;;;;;;;;5157545;27;8805;-82
2022/01/10 00:40:03;;;;;;;;;0.00;0.00;;;;;;;;5157597;27;8859;-82
2022/01/10 00:42:29;;;;;;;;;0.00;0.00;;;;;;;;5157742;27;8788;-82
2022/01/10 00:44:57;;;;;;;;;0.00;0.00;;;;;;;;5157387;27;8842;-82
2022/01/10 00:47:24;;;;;;;;;0.00;0.00;;;;;;;;5157444;27;8832;-78
2022/01/10 00:49:50;;;;;;;;;0.00;0.00;;;;;;;;5156879;27;8898;-81
2022/01/10 00:52:15;;;;;;;;;0.00;0.00;;;;;;;;5157314;27;8768;-80
2022/01/10 00:54:40;;;;;;;;;0.00;0.00;;;;;;;;5157235;27;8812;-81
2022/01/10 00:57:08;;;;;;;;;0.00;0.00;;;;;;;;5157020;27;8786;-81
2022/01/10 00:59:33;;;;;;;;;0.00;0.00;;;;;;;;5157343;27;9779;-80
2022/01/10 01:02:02;;;;;;;;;0.00;0.00;;;;;;;;5156674;27;8942;-80
2022/01/10 01:04:27;;;;;;;;;0.00;0.00;;;;;;;;5157074;27;8824;-80
2022/01/10 01:06:53;;;;;;;;;0.00;0.00;;;;;;;;5137681;27;9671;-80
2022/01/10 01:09:24;;;;;;;;;0.00;0.00;;;;;;;;5157253;27;8896;-80
2022/01/10 01:14:52;;;;;;;;;0.00;0.00;;;;;;;;5157014;27;8729;-80
2022/01/10 01:25:07;;;;;;;;;0.00;0.00;;;;;;;;5156594;27;8938;-80
2022/01/10 01:27:33;;;;;;;;;0.25;0.25;;;;;;;;5156770;27;8851;-80
2022/01/10 01:30:01;;;;;;;;;0.00;0.00;;;;;;;;5156201;27;8904;-80
2022/01/10 01:32:26;;;;;;;;;0.00;0.00;;;;;;;;5137925;27;9725;-80
2022/01/10 01:34:56;;;;;;;;;2.00;2.00;;;;;;;;5155788;27;8828;-80
2022/01/10 01:37:21;;;;;;;;;0.00;0.00;;;;;;;;5137884;27;9682;-80
2022/01/10 01:39:49;;;;;;;;;6.25;6.25;;;;;;;;5155973;27;8801;-80
2022/01/10 01:42:32;;;;;;;;;0.00;0.00;;;;;;;;5156264;27;8737;-80
2022/01/10 01:44:58;;;;;;;;;0.00;0.00;;;;;;;;5155865;27;8804;-80
2022/01/10 01:47:23;;;;;;;;;0.00;0.00;;;;;;;;5155911;27;8812;-80
2022/01/10 01:49:51;;;;;;;;;6.75;6.75;;;;;;;;5155764;27;8800;-80
2022/01/10 01:52:16;;;;;;;;;0.00;0.00;;;;;;;;5156219;27;8811;-80
2022/01/10 01:54:42;;;;;;;;;0.00;0.00;;;;;;;;5156280;27;8812;-80
2022/01/10 01:57:07;;;;;;;;;0.00;0.00;;;;;;;;5156067;27;8816;-80
2022/01/10 01:59:37;;;;;;;;;0.00;0.00;;;;;;;;5137827;27;8807;-80
2022/01/10 02:02:02;;;;;;;;;10.50;10.50;;;;;;;;5142410;27;8768;-80
2022/01/10 02:04:28;;;;;;;;;13.00;13.00;;;;;;;;5156083;27;8850;-80
2022/01/10 02:06:53;;;;;;;;;0.00;0.00;;;;;;;;5137040;27;8826;-80
2022/01/10 02:09:18;;;;;;;;;0.00;0.00;;;;;;;;5155913;27;8853;-80
2022/01/10 02:11:45;;;;;;;;;0.00;0.00;;;;;;;;5155578;27;8836;-80
2022/01/10 02:14:10;;;;;;;;;0.00;0.00;;;;;;;;5155849;27;8827;-80
2022/01/10 02:16:52;;;;;;;;;0.00;0.00;;;;;;;;5155828;27;8949;-80
2022/01/10 02:19:18;;;;;;;;;0.00;0.00;;;;;;;;5155342;27;8749;-80
2022/01/10 02:21:43;;;;;;;;;0.00;0.00;;;;;;;;5155332;27;8922;-80
2022/01/10 02:24:11;;;;;;;;;0.00;0.00;;;;;;;;5155535;27;8796;-80
2022/01/10 02:26:40;;;;;;;;;4.50;4.50;;;;;;;;5155995;27;8780;-80
2022/01/10 02:29:06;;;;;;;;;0.00;0.00;;;;;;;;5136466;27;8793;-80
2022/01/10 02:31:35;;;;;;;;;45.00;39.60;;;;;;;;5155727;27;8899;-80
2022/01/10 02:34:01;;;;;;;;;23.25;22.50;;;;;;;;5154864;27;8816;-80
2022/01/10 02:36:27;;;;;;;;;33.75;31.25;;;;;;;;5155588;27;8819;-81
2022/01/10 02:38:57;;;;;;;;;48.20;43.20;;;;;;;;5155237;27;8824;-80
2022/01/10 02:41:25;;;;;;;;;69.40;60.80;;;;;;;;5136700;27;8800;-80
2022/01/10 02:43:52;;;;;;;;;91.40;83.20;;;;;;;;5155017;27;8788;-80
2022/01/10 02:46:17;;;;;;;;;112.75;106.75;;;;;;;;5155271;27;8789;-80
2022/01/10 02:48:45;;;;;;;;;124.25;123.25;;;;;;;;5154776;27;8930;-81
2022/01/10 02:51:10;;;;;;;;;147.33;147.33;;;;;;;;5154718;27;11523;-81
2022/01/10 02:53:36;;;;;;;;;153.80;153.80;;;;;;;;5159187;27;9497;-81
2022/01/10 02:56:01;;;;;;;;;162.25;162.25;;;;;;;;5158541;27;8812;-80
2022/01/10 02:58:26;;;;;;;;;171.50;171.50;;;;;;;;5158538;27;8800;-80
2022/01/10 03:00:52;;;;;;;;;167.50;166.75;;;;;;;;5158468;27;9582;-80
2022/01/10 03:03:17;;;;;;;;;170.80;170.60;;;;;;;;5139673;27;8804;-80
2022/01/10 03:05:42;;;;;;;;;171.60;166.80;;;;;;;;5157974;27;8768;-80
2022/01/10 03:08:07;;;;;;;;;183.40;180.20;;;;;;;;5158540;27;8954;-80
2022/01/10 03:10:33;;;;;;;;;190.80;188.20;;;;;;;;5158233;27;8804;-81
2022/01/10 03:12:59;;;;;;;;;181.00;176.60;;;;;;;;5158249;27;9000;-80
2022/01/10 03:15:25;;;;;;;;;168.00;166.83;;;;;;;;5158144;27;8776;-80
2022/01/10 03:17:54;;;;;;;;;184.80;179.80;;;;;;;;5139181;27;8788;-80
2022/01/10 03:20:20;;;;;;;;;173.60;166.20;;;;;;;;5158012;27;9643;-80
2022/01/10 03:22:46;;;;;;;;;175.40;172.60;;;;;;;;5157792;27;11542;-80
2022/01/10 03:25:13;;;;;;;;;186.33;178.00;;;;;;;;5158166;27;8834;-80
2022/01/10 03:27:38;;;;;;;;;186.20;180.80;;;;;;;;5158023;27;10409;-80
2022/01/10 03:30:07;;;;;;;;;192.50;189.00;;;;;;;;5157654;27;8780;-80
2022/01/10 03:32:35;;;;;;;;;192.00;184.00;;;;;;;;5157921;27;8786;-80
2022/01/10 03:35:00;;;;;;;;;186.60;179.80;;;;;;;;5157299;27;9632;-80
2022/01/10 03:37:26;;;;;;;;;203.00;192.75;;;;;;;;5157886;27;8863;-80
2022/01/10 03:40:00;;;;;;;;;189.25;180.25;;;;;;;;5157625;27;8832;-81
2022/01/10 03:42:28;;;;;;;;;198.50;195.50;;;;;;;;5157865;27;8784;-81
2022/01/10 03:44:55;;;;;;;;;191.20;184.40;;;;;;;;5157351;27;8741;-80
2022/01/10 03:47:21;;;;;;;;;192.60;188.40;;;;;;;;5156869;27;8767;-80
2022/01/10 03:49:47;;;;;;;;;198.80;193.60;;;;;;;;5157050;27;9575;-80
2022/01/10 03:52:14;;;;;;;;;196.00;193.80;;;;;;;;5157582;27;8895;-80
2022/01/10 03:54:49;;;;;;;;;184.00;177.25;;;;;;;;5157667;27;8892;-80
2022/01/10 03:57:15;;;;;;;;;178.17;172.67;;;;;;;;5157482;27;8827;-80
2022/01/10 03:59:40;;;;;;;;;179.40;173.60;;;;;;;;5157488;27;8832;-80
2022/01/10 04:02:08;;;;;;;;;189.50;184.25;;;;;;;;5157244;27;8811;-80
2022/01/10 04:04:38;;;;;;;;;194.20;188.40;;;;;;;;5137103;27;8821;-80
2022/01/10 04:07:04;;;;;;;;;185.40;178.00;;;;;;;;5143560;27;8763;-80
2022/01/10 04:09:30;;;;;;;;;192.50;181.67;;;;;;;;5157233;27;8788;-80
2022/01/10 04:11:55;;;;;;;;;181.00;178.00;;;;;;;;5138289;27;8966;-80
2022/01/10 04:14:23;;;;;;;;;195.00;185.67;;;;;;;;5157432;27;8937;-80
2022/01/10 04:16:48;;;;;;;;;187.33;177.00;;;;;;;;5156970;27;8749;-80
2022/01/10 04:19:16;;;;;;;;;175.00;169.50;;;;;;;;5138072;27;8879;-80
2022/01/10 04:21:46;;;;;;;;;181.20;178.40;;;;;;;;5156831;27;8776;-80
2022/01/10 04:24:12;;;;;;;;;178.67;174.50;;;;;;;;5138617;27;8749;-80
2022/01/10 04:26:37;;;;;;;;;179.67;176.00;;;;;;;;5157318;27;9607;-80
2022/01/10 04:29:05;;;;;;;;;180.75;173.25;;;;;;;;5138147;27;8828;-80
2022/01/10 04:31:33;;;;;;;;;178.83;173.00;;;;;;;;5157237;27;9224;-80
2022/01/10 04:33:58;;;;;;;;;174.60;166.60;;;;;;;;5156403;27;8995;-80
2022/01/10 04:36:24;;;;;;;;;178.40;173.20;;;;;;;;5157244;27;9655;-80
2022/01/10 04:38:49;;;;;;;;;173.00;161.67;;;;;;;;5137652;27;8844;-80
2022/01/10 04:41:14;;;;;;;;;173.00;166.00;;;;;;;;5157220;27;8903;-80
2022/01/10 04:43:40;;;;;;;;;177.40;173.60;;;;;;;;5138035;27;11304;-80
2022/01/10 04:46:05;;;;;;;;;182.25;173.00;;;;;;;;5156583;27;8792;-80
2022/01/10 04:48:33;;;;;;;;;168.25;164.50;;;;;;;;5156750;27;8836;-80
2022/01/10 04:51:15;;;;;;;;;176.33;169.50;;;;;;;;5156122;27;8904;-80
2022/01/10 04:53:42;;;;;;;;;173.60;168.80;;;;;;;;5156538;27;9697;-80
2022/01/10 04:56:08;;;;;;;;;171.80;166.40;;;;;;;;5156567;27;10976;-80
2022/01/10 04:58:36;;;;;;;;;167.67;157.00;;;;;;;;5156504;27;9506;-80
2022/01/10 05:01:04;;;;;;;;;155.60;146.80;;;;;;;;5156316;27;8800;-80
2022/01/10 05:03:29;;;;;;;;;158.00;152.50;;;;;;;;5156568;27;8816;-80
2022/01/10 05:05:55;;;;;;;;;160.20;155.40;;;;;;;;5156032;27;8887;-80
2022/01/10 05:08:23;;;;;;;;;163.00;157.33;;;;;;;;5137964;27;8824;-81
2022/01/10 05:10:49;;;;;;;;;156.00;152.60;;;;;;;;5155768;27;8899;-80
2022/01/10 05:13:17;;;;;;;;;161.20;156.40;;;;;;;;5156626;27;8800;-80
2022/01/10 05:15:49;;;;;;;;;170.20;165.00;;;;;;;;5155785;27;8838;-81
2022/01/10 05:18:21;;;;;;;;;175.20;171.20;;;;;;;;5156151;27;8796;-81
2022/01/10 05:20:49;;;;;;;;;181.75;179.25;;;;;;;;5151142;27;8777;-81
2022/01/10 05:23:14;;;;;;;;;174.00;167.80;;;;;;;;5156086;27;12047;-80
2022/01/10 05:25:40;;;;;;;;;185.80;171.00;;;;;;;;5156154;27;8788;-80
2022/01/10 05:28:10;;;;;;;;;190.40;183.80;;;;;;;;5155604;27;8868;-80
2022/01/10 05:30:42;;;;;;;;;182.50;174.00;;;;;;;;5156268;27;11591;-80
2022/01/10 05:33:08;;;;;;;;;182.67;177.83;;;;;;;;5155587;27;8777;-80
2022/01/10 05:35:33;;;;;;;;;184.60;180.80;;;;;;;;5156074;27;8996;-80
2022/01/10 05:38:01;;;;;;;;;174.00;168.60;;;;;;;;5155593;27;9531;-80
2022/01/10 05:40:26;;;;;;;;;166.80;157.40;;;;;;;;5137571;27;8842;-80
2022/01/10 05:42:52;;;;;;;;;169.25;164.75;;;;;;;;5155492;27;11497;-80
2022/01/10 05:45:17;;;;;;;;;169.60;166.20;;;;;;;;5136294;27;8816;-80
2022/01/10 05:47:45;;;;;;;;;153.80;149.00;;;;;;;;5151697;27;8835;-80
2022/01/10 05:50:11;;;;;;;;;154.40;149.40;;;;;;;;5155381;27;8796;-80
2022/01/10 05:52:37;;;;;;;;;166.20;161.20;;;;;;;;5155763;27;8789;-80
2022/01/10 05:55:06;;;;;;;;;170.60;166.60;;;;;;;;5154891;27;8780;-80
2022/01/10 05:57:34;;;;;;;;;170.40;163.60;;;;;;;;5146925;27;8761;-80
2022/01/10 05:59:59;;;;;;;;;160.40;153.20;;;;;;;;5154449;27;8847;-80
2022/01/10 06:02:25;;;;;;;;;176.40;170.40;;;;;;;;5155921;27;8785;-79
2022/01/10 06:04:50;;;;;;;;;168.25;163.00;;;;;;;;5154553;27;8800;-79
2022/01/10 06:07:15;;;;;;;;;171.20;163.20;;;;;;;;5155026;27;11539;-79
2022/01/10 06:09:41;;;;;;;;;154.40;151.80;;;;;;;;5153272;27;8891;-80
2022/01/10 06:12:06;;;;;;;;;162.50;159.50;;;;;;;;5136641;27;8973;-80
2022/01/10 06:14:34;;;;;;;;;175.20;171.40;;;;;;;;5154775;27;8858;-79
2022/01/10 06:17:03;;;;;;;;;179.00;177.75;;;;;;;;5149018;27;8776;-79
2022/01/10 06:19:34;;;;;;;;;198.40;195.20;;;;;;;;5134679;27;8764;-79
2022/01/10 06:21:59;;;;;;;;;209.50;207.17;;;;;;;;5135933;27;8784;-79
2022/01/10 06:24:28;;;;;;;;;217.20;212.60;;;;;;;;5154676;27;8887;-79
2022/01/10 06:26:56;;;;;;;;;222.50;215.17;;;;;;;;5153330;27;8788;-79
2022/01/10 06:29:22;;;;;;;;;209.50;208.25;;;;;;;;5154207;27;8937;-79
2022/01/10 06:31:47;;;;;;;;;215.75;211.50;;;;;;;;5155898;27;8788;-79
2022/01/10 06:34:12;;;;;;;;;216.25;210.50;;;;;;;;5154629;27;9650;-79
2022/01/10 06:36:38;;;;;;;;;187.25;180.75;;;;;;;;5159122;27;11468;-78
2022/01/10 06:39:03;;;;;;;;;193.20;188.60;;;;;;;;5154765;27;8932;-80
2022/01/10 06:41:31;;;;;;;;;173.50;170.50;;;;;;;;5154448;27;8816;-80
2022/01/10 06:43:59;;;;;;;;;181.40;178.40;;;;;;;;5155121;27;8753;-78
2022/01/10 06:46:24;;;;;;;;;174.00;171.60;;;;;;;;5160710;27;9650;-80
2022/01/10 06:48:52;;;;;;;;;165.25;159.50;;;;;;;;5153919;27;8878;-80
2022/01/10 06:51:17;;;;;;;;;172.20;168.80;;;;;;;;5153500;27;8801;-80
2022/01/10 06:53:42;;;;;;;;;159.25;155.50;;;;;;;;5154440;27;8875;-80
2022/01/10 06:56:11;;;;;;;;;169.00;166.00;;;;;;;;5154969;27;8804;-80
2022/01/10 06:58:36;;;;;;;;;167.00;163.50;;;;;;;;5154229;27;8729;-80
2022/01/10 07:01:02;;;;;;;;;155.00;152.20;;;;;;;;5153785;27;8848;-80
2022/01/10 07:03:27;;;;;;;;;170.25;159.50;;;;;;;;5153646;27;8835;-83
2022/01/10 07:05:52;;;;;;;;;158.75;156.25;;;;;;;;5154199;27;8801;-81
2022/01/10 07:08:20;;;;;;;;;158.80;157.00;;;;;;;;5154146;27;8981;-82
2022/01/10 07:10:45;;;;;;;;;159.60;152.80;;;;;;;;5154468;27;8793;-80
2022/01/10 07:13:10;;;;;;;;;155.00;154.50;;;;;;;;5135257;27;9595;-79
2022/01/10 07:15:38;;;;;;;;;155.00;152.50;;;;;;;;5154135;27;8792;-83
2022/01/10 07:18:03;;;;;;;;;163.17;159.67;;;;;;;;5148804;27;8801;-81
2022/01/10 07:20:31;;;;;;;;;155.25;148.00;;;;;;;;5154437;27;8808;-82
2022/01/10 07:22:56;;;;;;;;;159.00;157.00;;;;;;;;5154247;27;11413;-81
2022/01/10 07:25:21;;;;;;;;;150.20;149.60;;;;;;;;5154503;27;8851;-82
2022/01/10 07:27:47;;;;;;;;;154.50;151.75;;;;;;;;5154453;27;8849;-82
2022/01/10 07:30:13;;;;;;;;;148.00;145.25;;;;;;;;5154733;27;8898;-81
2022/01/10 07:32:38;;;;;;;;;145.75;141.75;;;;;;;;5154394;27;8777;-81
2022/01/10 07:35:04;;;;;;;;;148.00;147.00;;;;;;;;5153888;27;8823;-81
2022/01/10 07:37:31;;;;;;;;;150.80;148.80;;;;;;;;5136384;27;8812;-82
2022/01/10 07:39:59;;;;;;;;;139.40;137.00;;;;;;;;5157624;27;8777;-81
2022/01/10 07:42:25;;;;;;;;;145.40;141.20;;;;;;;;5139386;27;10532;-82
2022/01/10 07:44:53;;;;;;;;;143.25;142.00;;;;;;;;5157447;27;8836;-82
2022/01/10 07:47:18;;;;;;;;;147.80;143.60;;;;;;;;5154393;27;8956;-81
2022/01/10 07:49:44;;;;;;;;;150.50;146.00;;;;;;;;5157087;27;8946;-81
2022/01/10 07:52:12;;;;;;;;;141.75;137.75;;;;;;;;5138987;27;8796;-80
2022/01/10 07:54:41;;;;;;;;;142.50;138.50;;;;;;;;5157907;27;8784;-80
2022/01/10 07:57:06;;;;;;;;;150.60;147.20;;;;;;;;5157312;27;8918;-80
2022/01/10 07:59:32;;;;;;;;;148.50;147.50;;;;;;;;5138687;27;8832;-80
2022/01/10 08:01:57;;;;;;;;;148.50;145.00;;;;;;;;5159778;27;8827;-80
2022/01/10 08:04:22;;;;;;;;;141.50;139.50;;;;;;;;5157421;27;8931;-80
2022/01/10 08:06:48;;;;;;;;;149.40;146.20;;;;;;;;5156613;27;9587;-81
2022/01/10 08:09:16;;;;;;;;;159.50;157.75;;;;;;;;5157578;27;10148;-80
2022/01/10 08:11:41;;;;;;;;;148.50;148.50;;;;;;;;5156762;27;8777;-80
2022/01/10 08:14:10;;;;;;;;;147.00;144.20;;;;;;;;5156967;27;8888;-79
2022/01/10 08:16:35;;;;;;;;;159.60;156.20;;;;;;;;5154619;27;8787;-80
2022/01/10 08:19:00;;;;;;;;;156.67;152.33;;;;;;;;5156231;27;8916;-79
2022/01/10 08:21:26;;;;;;;;;160.50;159.25;;;;;;;;5157085;27;8808;-79
2022/01/10 08:23:51;;;;;;;;;163.75;161.50;;;;;;;;5137871;27;9106;-78
2022/01/10 08:26:16;;;;;;;;;157.20;154.60;;;;;;;;5157186;27;8836;-78
2022/01/10 08:28:44;;;;;;;;;147.80;144.60;;;;;;;;5155097;27;8930;-79
2022/01/10 08:31:12;;;;;;;;;148.00;145.17;;;;;;;;5156303;27;8792;-78
2022/01/10 08:33:37;;;;;;;;;154.80;151.00;;;;;;;;5137900;27;9017;-78
2022/01/10 08:36:03;;;;;;;;;147.80;147.80;;;;;;;;5137346;27;9064;-79
2022/01/10 08:38:28;;;;;;;;;164.00;160.00;;;;;;;;5156800;27;8901;-79
2022/01/10 08:40:54;;;;;;;;;157.80;154.80;;;;;;;;5137637;27;9527;-78
2022/01/10 08:43:19;;;;;;;;;161.50;160.25;;;;;;;;5137267;27;9803;-80
2022/01/10 08:45:44;;;;;;;;;160.00;159.00;;;;;;;;5156563;27;8851;-79
2022/01/10 08:48:12;;;;;;;;;160.00;156.75;;;;;;;;5137668;27;8828;-79
2022/01/10 08:50:40;;;;;;;;;153.60;150.00;;;;;;;;5154868;27;8788;-79
2022/01/10 08:53:09;;;;;;;;;148.25;147.00;;;;;;;;5156351;27;8784;-79
2022/01/10 08:55:34;;;;;;;;;153.20;153.20;;;;;;;;5156255;27;8817;-81
2022/01/10 08:58:01;;;;;;;;;154.00;151.75;;;;;;;;5155650;27;8797;-82
2022/01/10 09:00:28;;;;;;;;;158.00;157.80;;;;;;;;5161801;27;8775;-81
2022/01/10 09:02:53;;;;;;;;;159.83;156.00;;;;;;;;5157838;27;8823;-80
2022/01/10 09:05:22;;;;;;;;;158.60;155.60;;;;;;;;5156694;27;8797;-81
2022/01/10 09:07:50;;;;;;;;;149.40;147.80;;;;;;;;5155772;27;8800;-81
2022/01/10 09:10:15;;;;;;;;;158.20;154.60;;;;;;;;5156497;27;9677;-81
2022/01/10 09:12:41;;;;;;;;;156.60;156.20;;;;;;;;5146725;27;8992;-81
2022/01/10 09:15:09;;;;;;;;;156.25;152.75;;;;;;;;5153320;27;9130;-81
2022/01/10 09:17:38;;;;;;;;;141.80;141.20;;;;;;;;5155565;27;8807;-81
2022/01/10 09:20:03;;;;;;;;;147.40;144.80;;;;;;;;5136020;27;8785;-81
2022/01/10 09:22:29;;;;;;;;;150.33;150.33;;;;;;;;5137299;27;8887;-80
2022/01/10 09:24:56;;;;;;;;;151.60;147.80;;;;;;;;5155583;27;9602;-80
2022/01/10 09:27:22;;;;;;;;;150.40;147.60;;;;;;;;5144293;27;8864;-81
2022/01/10 09:29:50;;;;;;;;;149.80;148.00;;;;;;;;5155332;27;8893;-81
2022/01/10 09:32:18;;;;;;;;;149.80;147.40;;;;;;;;5156235;27;8753;-82
2022/01/10 09:34:46;;;;;;;;;150.00;149.67;;;;;;;;5136585;27;8818;-81
2022/01/10 09:37:11;;;;;;;;;145.80;144.40;;;;;;;;5152645;27;9654;-81
2022/01/10 09:39:37;;;;;;;;;154.25;151.75;;;;;;;;5156088;27;8796;-81
2022/01/10 09:42:05;;;;;;;;;155.00;153.50;;;;;;;;5166893;27;8827;-81
2022/01/10 09:44:31;;;;;;;;;149.00;148.00;;;;;;;;5153770;27;8780;-81
2022/01/10 09:46:59;;;;;;;;;149.80;148.20;;;;;;;;5151714;27;11573;-81
2022/01/10 09:49:24;;;;;;;;;148.20;146.40;;;;;;;;5154445;27;9958;-81
2022/01/10 09:51:49;;;;;;;;;154.80;152.60;;;;;;;;5154626;27;11520;-80
2022/01/10 09:54:15;;;;;;;;;157.75;157.50;;;;;;;;5155730;27;9044;-80
2022/01/10 09:56:40;;;;;;;;;154.25;152.75;;;;;;;;5155581;27;8970;-81
2022/01/10 09:59:06;;;;;;;;;158.00;155.40;;;;;;;;5155499;27;8831;-80
2022/01/10 10:01:34;;;;;;;;;163.80;162.00;;;;;;;;5153976;27;8796;-81
2022/01/10 10:04:03;;;;;;;;;162.60;162.20;;;;;;;;5154922;27;8803;-81
2022/01/10 10:06:29;;;;;;;;;165.00;164.33;;;;;;;;5155281;27;8780;-81
2022/01/10 10:09:03;;;;;;;;;161.67;160.67;;;;;;;;5155263;27;8805;-81
2022/01/10 10:11:38;;;;;;;;;155.60;155.60;;;;;;;;5155648;27;8796;-81
2022/01/10 10:14:04;;;;;;;;;152.20;152.00;;;;;;;;5155277;27;9768;-81
2022/01/10 10:16:31;;;;;;;;;154.20;154.20;;;;;;;;5155603;27;8873;-81
2022/01/10 10:19:00;;;;;;;;;152.60;150.40;;;;;;;;5155231;27;8797;-81
2022/01/10 10:21:25;;;;;;;;;138.50;138.50;;;;;;;;5155162;27;8819;-81
2022/01/10 10:23:50;;;;;;;;;110.75;107.75;;;;;;;;5155445;27;8824;-81
2022/01/10 10:26:17;;;;;;;;;128.50;128.50;;;;;;;;5155439;27;11563;-81
2022/01/10 10:28:44;;;;;;;;;123.60;122.00;;;;;;;;5136865;27;9851;-81
2022/01/10 10:31:10;;;;;;;;;87.20;79.20;;;;;;;;5155331;27;11548;-81
2022/01/10 10:33:35;;;;;;;;;114.60;111.20;;;;;;;;5162035;27;8802;-81
2022/01/10 10:36:08;;;;;;;;;112.00;108.00;;;;;;;;5165086;27;9275;-81
2022/01/10 10:38:33;;;;;;;;;80.00;70.60;;;;;;;;5158155;27;8801;-81
2022/01/10 10:41:00;;;;;;;;;123.40;122.20;;;;;;;;5154686;27;8828;-75
2022/01/10 10:43:25;;;;;;;;;124.67;122.00;;;;;;;;5153571;27;11627;-75
2022/01/10 10:45:50;;;;;;;;;146.00;145.75;;;;;;;;5136157;27;8906;-75
2022/01/10 10:48:17;;;;;;;;;149.50;143.25;;;;;;;;5136185;27;8931;-75
2022/01/10 10:50:47;;;;;;;;;119.25;118.00;;;;;;;;5135366;27;8869;-75
2022/01/10 10:53:14;;;;;;;;;98.40;91.60;;;;;;;;5134266;27;11544;-75
2022/01/10 10:55:41;;;;;;;;;136.00;133.00;;;;;;;;5155173;27;8787;-75
2022/01/10 10:58:10;;;;;;;;;86.20;77.60;;;;;;;;5136143;27;11516;-75
2022/01/10 11:00:38;;;;;;;;;138.60;138.60;;;;;;;;5153964;27;8784;-75
2022/01/10 11:03:04;;;;;;;;;154.20;152.80;;;;;;;;5135718;27;8800;-75
2022/01/10 11:05:30;;;;;;;;;93.20;85.20;;;;;;;;5135961;27;8792;-77
2022/01/10 11:07:56;;;;;;;;;44.00;39.25;;;;;;;;5154501;27;8775;-75
2022/01/10 11:10:23;;;;;;;;;37.50;34.50;;;;;;;;5154975;27;9540;-75
2022/01/10 11:12:55;;;;;;;;;59.60;52.00;;;;;;;;5137608;27;8863;-82
2022/01/10 11:15:21;;;;;;;;;106.80;102.20;;;;;;;;5158554;27;8788;-82
2022/01/10 11:17:47;;;;;;;;;105.20;99.60;;;;;;;;5157842;27;8886;-81
2022/01/10 11:20:19;;;;;;;;;146.25;143.00;;;;;;;;5150643;27;8836;-81
2022/01/10 11:22:52;;;;;;;;;136.50;133.50;;;;;;;;5151618;27;8776;-81
2022/01/10 11:25:20;;;;;;;;;148.40;148.20;;;;;;;;5139580;27;8800;-81
2022/01/10 11:27:45;;;;;;;;;134.50;130.25;;;;;;;;5159001;27;8818;-81
2022/01/10 11:30:28;;;;;;;;;147.80;143.60;;;;;;;;5159564;27;9524;-80
2022/01/10 11:33:04;;;;;;;;;145.20;141.80;;;;;;;;5138992;27;8780;-82
2022/01/10 11:35:32;;;;;;;;;171.80;171.80;;;;;;;;5157929;27;8895;-82
2022/01/10 11:37:59;;;;;;;;;10.75;10.75;;;;;;;;5158471;27;8788;-82
2022/01/10 11:40:25;;;;;;;;;107.50;103.75;;;;;;;;5158799;27;8764;-81
2022/01/10 11:43:00;;;;;;;;;103.20;95.80;;;;;;;;5158477;27;8892;-82
2022/01/10 11:45:28;;;;;;;;;208.67;206.00;;;;;;;;5151529;27;8780;-81
2022/01/10 11:48:20;;;;;;;;;101.00;95.00;;;;;;;;5157595;27;8800;-81
2022/01/10 11:50:48;;;;;;;;;11.75;11.75;;;;;;;;5136853;27;8859;-81
2022/01/10 11:53:16;;;;;;;;;26.20;24.60;;;;;;;;5157525;27;8773;-82
2022/01/10 11:55:43;;;;;;;;;148.80;145.40;;;;;;;;5159033;27;8815;-81
2022/01/10 11:58:22;;;;;;;;;151.80;151.00;;;;;;;;5157880;27;8796;-82
2022/01/10 12:00:51;;;;;;;;;153.60;151.80;;;;;;;;5144824;27;8804;-81
2022/01/10 12:03:18;;;;;;;;;145.00;145.00;;;;;;;;5157679;27;8842;-81
2022/01/10 12:05:46;;;;;;;;;175.60;173.60;;;;;;;;5138559;27;8808;-81
2022/01/10 12:08:14;;;;;;;;;141.17;141.00;;;;;;;;5157718;27;8926;-81
2022/01/10 12:10:43;;;;;;;;;191.33;190.67;;;;;;;;5157109;27;8785;-80
2022/01/10 12:13:14;;;;;;;;;96.20;89.20;;;;;;;;5138846;27;9780;-81
2022/01/10 12:15:39;;;;;;;;;146.00;145.40;;;;;;;;5157816;27;9634;-81
2022/01/10 12:18:08;;;;;;;;;170.25;169.75;;;;;;;;5156475;27;8860;-81
2022/01/10 12:20:36;;;;;;;;;128.75;124.50;;;;;;;;5138123;27;8807;-80
2022/01/10 12:23:04;;;;;;;;;153.00;148.60;;;;;;;;5156927;27;8800;-81
2022/01/10 12:25:29;;;;;;;;;140.20;139.20;;;;;;;;5137690;27;10388;-81
2022/01/10 12:27:56;;;;;;;;;144.50;139.75;;;;;;;;5156693;27;8815;-81
2022/01/10 12:30:30;;;;;;;;;147.80;146.40;;;;;;;;5138220;27;8790;-82
2022/01/10 12:32:55;;;;;;;;;139.80;136.60;;;;;;;;5156285;27;8789;-81
2022/01/10 12:35:21;;;;;;;;;141.25;140.50;;;;;;;;5136108;27;8808;-81
2022/01/10 12:37:54;;;;;;;;;141.00;137.33;;;;;;;;5157604;27;8849;-81
2022/01/10 12:40:21;;;;;;;;;156.60;156.60;;;;;;;;5138249;27;10960;-80
2022/01/10 12:42:50;;;;;;;;;103.20;96.20;;;;;;;;5169439;27;8789;-81
2022/01/10 12:45:15;;;;;;;;;138.00;136.80;;;;;;;;5156986;27;8833;-81
2022/01/10 12:47:46;;;;;;;;;147.00;146.33;;;;;;;;5156396;27;8812;-81
2022/01/10 12:50:12;;;;;;;;;146.75;143.00;;;;;;;;5156986;27;8819;-81
2022/01/10 12:52:39;;;;;;;;;148.00;148.00;;;;;;;;5157875;27;8796;-81
2022/01/10 12:55:08;;;;;;;;;137.40;135.80;;;;;;;;5138188;27;8869;-81
2022/01/10 12:57:33;;;;;;;;;138.60;137.60;;;;;;;;5156816;27;8778;-82
2022/01/10 12:59:59;;;;;;;;;141.75;141.75;;;;;;;;5156547;27;8812;-81
2022/01/10 13:02:27;;;;;;;;;138.50;135.25;;;;;;;;5157137;27;9514;-81
2022/01/10 13:04:55;;;;;;;;;109.20;105.60;;;;;;;;5157219;27;11569;-80
2022/01/10 13:07:20;;;;;;;;;133.00;133.00;;;;;;;;5156633;27;10712;-81
2022/01/10 13:09:48;;;;;;;;;132.00;130.25;;;;;;;;5137508;27;8827;-81
2022/01/10 13:12:26;;;;;;;;;140.00;139.00;;;;;;;;5137744;27;8838;-81
2022/01/10 13:14:52;;;;;;;;;149.00;146.40;;;;;;;;5156300;27;8826;-81
2022/01/10 13:17:21;;;;;;;;;150.25;148.50;;;;;;;;5156793;27;8794;-81
2022/01/10 13:19:57;;;;;;;;;135.00;127.75;;;;;;;;5155794;27;11532;-81
2022/01/10 13:22:29;;;;;;;;;139.25;137.00;;;;;;;;5160381;27;9046;-81
2022/01/10 13:24:58;;;;;;;;;145.80;145.80;;;;;;;;5155751;27;8781;-80
2022/01/10 13:27:34;;;;;;;;;141.60;140.20;;;;;;;;5156573;27;8796;-81
2022/01/10 13:30:13;;;;;;;;;142.20;141.00;;;;;;;;5155916;27;8792;-75
2022/01/10 13:32:41;;;;;;;;;142.20;140.80;;;;;;;;5156015;27;8960;-75
2022/01/10 13:35:09;;;;;;;;;136.00;129.20;;;;;;;;5155736;27;8788;-75
2022/01/10 13:37:34;;;;;;;;;125.75;124.00;;;;;;;;5156401;27;8803;-75
2022/01/10 13:40:10;;;;;;;;;131.00;128.75;;;;;;;;5155533;27;8812;-75
2022/01/10 13:43:06;;;;;;;;;129.20;123.60;;;;;;;;5155705;27;8780;-75
2022/01/10 13:45:44;;;;;;;;;129.40;127.60;;;;;;;;5128604;27;8761;-75
2022/01/10 13:48:16;;;;;;;;;143.20;139.60;;;;;;;;5155144;27;8960;-75
2022/01/10 13:50:44;;;;;;;;;128.80;125.20;;;;;;;;5136646;27;8834;-75
2022/01/10 13:53:11;;;;;;;;;138.60;136.00;;;;;;;;5155836;27;8881;-75
2022/01/10 13:55:37;;;;;;;;;133.80;131.40;;;;;;;;5155917;27;8842;-75
2022/01/10 13:58:04;;;;;;;;;141.80;139.60;;;;;;;;5154932;27;8792;-75
2022/01/10 14:00:29;;;;;;;;;141.25;139.50;;;;;;;;5155840;27;8776;-76
2022/01/10 14:02:57;;;;;;;;;142.00;137.80;;;;;;;;5167958;27;8854;-75
2022/01/10 14:05:23;;;;;;;;;126.20;124.80;;;;;;;;5154714;27;8772;-75
2022/01/10 14:07:49;;;;;;;;;127.80;124.00;;;;;;;;5155000;27;9756;-75
2022/01/10 14:10:15;;;;;;;;;129.00;127.00;;;;;;;;5155777;27;8815;-75
2022/01/10 14:12:40;;;;;;;;;131.80;129.20;;;;;;;;5136237;27;8835;-76
2022/01/10 14:15:06;;;;;;;;;131.75;127.25;;;;;;;;5155511;27;8765;-75
2022/01/10 14:17:31;;;;;;;;;137.40;136.60;;;;;;;;5136274;27;9540;-75
2022/01/10 14:19:57;;;;;;;;;129.33;127.67;;;;;;;;5155163;27;8792;-75
2022/01/10 14:22:24;;;;;;;;;134.00;132.60;;;;;;;;5154814;27;8813;-75
2022/01/10 14:24:52;;;;;;;;;136.50;135.50;;;;;;;;5155040;27;8810;-75